sensor_id;sensor_type;location;lat;lon;timestamp;pressure;altitude;pressure_sealevel;temperature;humidity
40502;BME280;29631;49.168;9.848;2023-04-26T00:02:12;96580.50;;;12.04;80.85
40502;BME280;29631;49.168;9.848;2023-04-26T00:04:38;96647.63;;;12.51;81.03
40502;BME280;29631;49.168;9.848;2023-04-26T00:07:04;96639.94;;;12.43;81.34
40502;BME280;29631;49.168;9.848;2023-04-26T00:09:31;96647.25;;;12.48;80.93
40502;BME280;29631;49.168;9.848;2023-04-26T00:11:57;96631.06;;;12.38;80.68
40502;BME280;29631;49.168;9.848;2023-04-26T00:14:23;96618.13;;;12.30;81.12
40502;BME280;29631;49.168;9.848;2023-04-26T00:16:49;96633.53;;;12.33;80.52
40502;BME280;29631;49.168;9.848;2023-04-26T00:19:15;96638.81;;;12.33;81.13
40502;BME280;29631;49.168;9.848;2023-04-26T00:21:42;96619.84;;;12.18;80.25
40502;BME280;29631;49.168;9.848;2023-04-26T00:24:07;96608.53;;;12.11;80.37
40502;BME280;29631;49.168;9.848;2023-04-26T00:26:34;96644.41;;;12.25;80.64
40502;BME280;29631;49.168;9.848;2023-04-26T00:29:01;96627.00;;;12.11;80.03
40502;BME280;29631;49.168;9.848;2023-04-26T00:31:27;96640.22;;;12.11;80.47
40502;BME280;29631;49.168;9.848;2023-04-26T00:33:53;96649.97;;;12.11;80.27
40502;BME280;29631;49.168;9.848;2023-04-26T00:36:18;96647.56;;;12.09;80.55
40502;BME280;29631;49.168;9.848;2023-04-26T00:38:45;96629.31;;;12.01;80.43
40502;BME280;29631;49.168;9.848;2023-04-26T00:41:11;96649.00;;;12.05;80.42
40502;BME280;29631;49.168;9.848;2023-04-26T00:43:37;96652.91;;;12.03;80.30
40502;BME280;29631;49.168;9.848;2023-04-26T00:46:04;96642.72;;;12.06;79.54
40502;BME280;29631;49.168;9.848;2023-04-26T00:48:30;96627.75;;;11.94;80.28
40502;BME280;29631;49.168;9.848;2023-04-26T00:50:56;96645.16;;;12.01;79.99
40502;BME280;29631;49.168;9.848;2023-04-26T00:53:22;96640.31;;;11.98;80.08
40502;BME280;29631;49.168;9.848;2023-04-26T00:55:48;96658.56;;;12.06;79.82
40502;BME280;29631;49.168;9.848;2023-04-26T00:58:16;96637.94;;;11.90;80.22
40502;BME280;29631;49.168;9.848;2023-04-26T01:00:43;96657.34;;;12.02;79.35
40502;BME280;29631;49.168;9.848;2023-04-26T01:03:09;96649.69;;;11.94;79.41
40502;BME280;29631;49.168;9.848;2023-04-26T01:05:36;96646.47;;;11.92;80.36
40502;BME280;29631;49.168;9.848;2023-04-26T01:08:02;96644.38;;;11.94;79.98
40502;BME280;29631;49.168;9.848;2023-04-26T01:10:31;96593.88;;;11.54;80.27
40502;BME280;29631;49.168;9.848;2023-04-26T01:12:57;96605.53;;;11.70;80.35
40502;BME280;29631;49.168;9.848;2023-04-26T01:15:25;96632.22;;;11.93;79.73
40502;BME280;29631;49.168;9.848;2023-04-26T01:17:52;96644.19;;;11.96;80.19
40502;BME280;29631;49.168;9.848;2023-04-26T01:20:18;96631.66;;;11.85;80.55
40502;BME280;29631;49.168;9.848;2023-04-26T01:22:44;96637.97;;;11.84;80.69
40502;BME280;29631;49.168;9.848;2023-04-26T01:25:11;96651.28;;;11.95;80.26
40502;BME280;29631;49.168;9.848;2023-04-26T01:27:37;96615.88;;;11.78;80.40
40502;BME280;29631;49.168;9.848;2023-04-26T01:30:04;96653.38;;;11.93;80.87
40502;BME280;29631;49.168;9.848;2023-04-26T01:32:29;96653.38;;;11.93;80.43
40502;BME280;29631;49.168;9.848;2023-04-26T01:34:55;96649.69;;;11.94;80.10
40502;BME280;29631;49.168;9.848;2023-04-26T01:37:21;96668.78;;;11.96;80.68
40502;BME280;29631;49.168;9.848;2023-04-26T01:39:47;96652.91;;;11.96;81.17
40502;BME280;29631;49.168;9.848;2023-04-26T01:42:13;96623.34;;;11.81;80.36
40502;BME280;29631;49.168;9.848;2023-04-26T01:44:38;96626.28;;;11.67;80.76
40502;BME280;29631;49.168;9.848;2023-04-26T01:47:04;96646.28;;;11.87;80.88
40502;BME280;29631;49.168;9.848;2023-04-26T01:49:31;96650.13;;;11.91;80.51
40502;BME280;29631;49.168;9.848;2023-04-26T01:51:58;96650.75;;;11.87;80.31
40502;BME280;29631;49.168;9.848;2023-04-26T01:54:24;96640.41;;;11.85;80.56
40502;BME280;29631;49.168;9.848;2023-04-26T01:56:49;96655.81;;;11.88;80.65
40502;BME280;29631;49.168;9.848;2023-04-26T01:59:15;96655.63;;;11.90;80.63
40502;BME280;29631;49.168;9.848;2023-04-26T02:01:41;96634.75;;;11.75;80.83
40502;BME280;29631;49.168;9.848;2023-04-26T02:04:10;96650.97;;;11.85;80.66
40502;BME280;29631;49.168;9.848;2023-04-26T02:06:36;96654.63;;;11.84;80.75
40502;BME280;29631;49.168;9.848;2023-04-26T02:09:03;96650.38;;;11.83;80.33
40502;BME280;29631;49.168;9.848;2023-04-26T02:11:29;96631.94;;;11.70;80.89
40502;BME280;29631;49.168;9.848;2023-04-26T02:13:55;96634.81;;;11.69;80.62
40502;BME280;29631;49.168;9.848;2023-04-26T02:16:21;96659.56;;;11.74;80.88
40502;BME280;29631;49.168;9.848;2023-04-26T02:18:47;96654.28;;;11.74;80.88
40502;BME280;29631;49.168;9.848;2023-04-26T02:21:16;96656.34;;;11.72;79.98
40502;BME280;29631;49.168;9.848;2023-04-26T02:23:45;96650.88;;;11.67;81.10
40502;BME280;29631;49.168;9.848;2023-04-26T02:26:10;96657.41;;;11.58;80.52
40502;BME280;29631;49.168;9.848;2023-04-26T02:28:37;96644.22;;;11.58;80.85
40502;BME280;29631;49.168;9.848;2023-04-26T02:31:03;96651.97;;;11.54;81.03
40502;BME280;29631;49.168;9.848;2023-04-26T02:33:29;96647.28;;;11.49;80.52
40502;BME280;29631;49.168;9.848;2023-04-26T02:35:54;96650.13;;;11.48;81.17
40502;BME280;29631;49.168;9.848;2023-04-26T02:38:20;96647.72;;;11.40;80.59
40502;BME280;29631;49.168;9.848;2023-04-26T02:40:46;96664.34;;;11.47;80.29
40502;BME280;29631;49.168;9.848;2023-04-26T02:43:12;96658.47;;;11.45;80.52
40502;BME280;29631;49.168;9.848;2023-04-26T02:45:41;96645.72;;;11.35;81.09
40502;BME280;29631;49.168;9.848;2023-04-26T02:48:07;96648.19;;;11.30;81.22
40502;BME280;29631;49.168;9.848;2023-04-26T02:50:33;96658.28;;;11.40;81.34
40502;BME280;29631;49.168;9.848;2023-04-26T02:52:59;96643.28;;;11.34;80.97
40502;BME280;29631;49.168;9.848;2023-04-26T02:55:25;96624.81;;;11.27;80.26
40502;BME280;29631;49.168;9.848;2023-04-26T02:57:51;96648.34;;;11.42;80.73
40502;BME280;29631;49.168;9.848;2023-04-26T03:00:17;96651.16;;;11.47;80.61
40502;BME280;29631;49.168;9.848;2023-04-26T03:02:42;96656.03;;;11.43;80.48
40502;BME280;29631;49.168;9.848;2023-04-26T03:05:08;96645.09;;;11.33;81.48
40502;BME280;29631;49.168;9.848;2023-04-26T03:07:35;96644.09;;;11.34;80.30
40502;BME280;29631;49.168;9.848;2023-04-26T03:10:01;96621.66;;;11.12;80.59
40502;BME280;29631;49.168;9.848;2023-04-26T03:12:27;96649.59;;;11.33;81.04
40502;BME280;29631;49.168;9.848;2023-04-26T03:14:52;96659.97;;;11.28;80.55
40502;BME280;29631;49.168;9.848;2023-04-26T03:17:18;96641.72;;;11.20;81.05
40502;BME280;29631;49.168;9.848;2023-04-26T03:19:44;96652.44;;;11.25;80.81
40502;BME280;29631;49.168;9.848;2023-04-26T03:22:10;96655.69;;;11.27;81.14
40502;BME280;29631;49.168;9.848;2023-04-26T03:24:42;96620.03;;;11.05;81.03
40502;BME280;29631;49.168;9.848;2023-04-26T03:27:08;96632.66;;;11.03;80.73
40502;BME280;29631;49.168;9.848;2023-04-26T03:29:33;96647.03;;;11.07;80.55
40502;BME280;29631;49.168;9.848;2023-04-26T03:31:59;96655.75;;;11.14;80.33
40502;BME280;29631;49.168;9.848;2023-04-26T03:34:25;96647.66;;;11.09;80.33
40502;BME280;29631;49.168;9.848;2023-04-26T03:36:51;96668.72;;;11.15;80.29
40502;BME280;29631;49.168;9.848;2023-04-26T03:39:17;96648.88;;;11.00;81.23
40502;BME280;29631;49.168;9.848;2023-04-26T03:41:43;96648.91;;;10.87;80.56
40502;BME280;29631;49.168;9.848;2023-04-26T03:44:09;96670.38;;;11.10;81.29
40502;BME280;29631;49.168;9.848;2023-04-26T03:46:34;96675.84;;;11.08;81.26
40502;BME280;29631;49.168;9.848;2023-04-26T03:49:00;96627.81;;;10.87;80.37
40502;BME280;29631;49.168;9.848;2023-04-26T03:51:26;96631.47;;;10.86;80.61
40502;BME280;29631;49.168;9.848;2023-04-26T03:53:53;96683.97;;;11.07;80.70
40502;BME280;29631;49.168;9.848;2023-04-26T03:56:18;96669.97;;;11.00;81.31
40502;BME280;29631;49.168;9.848;2023-04-26T03:58:45;96672.22;;;11.03;80.76
40502;BME280;29631;49.168;9.848;2023-04-26T04:01:11;96648.91;;;10.87;80.31
40502;BME280;29631;49.168;9.848;2023-04-26T04:03:37;96661.69;;;10.90;80.54
40502;BME280;29631;49.168;9.848;2023-04-26T04:06:03;96643.84;;;10.79;80.33
40502;BME280;29631;49.168;9.848;2023-04-26T04:08:29;96643.06;;;10.79;80.68
40502;BME280;29631;49.168;9.848;2023-04-26T04:10:55;96645.66;;;10.85;81.16
40502;BME280;29631;49.168;9.848;2023-04-26T04:13:21;96645.25;;;10.88;80.27
40502;BME280;29631;49.168;9.848;2023-04-26T04:15:47;96628.28;;;10.71;80.05
40502;BME280;29631;49.168;9.848;2023-04-26T04:18:12;96665.53;;;10.94;81.01
40502;BME280;29631;49.168;9.848;2023-04-26T04:20:40;96679.31;;;11.02;81.24
40502;BME280;29631;49.168;9.848;2023-04-26T04:23:06;96683.00;;;10.95;80.47
40502;BME280;29631;49.168;9.848;2023-04-26T04:25:33;96681.97;;;10.96;80.97
40502;BME280;29631;49.168;9.848;2023-04-26T04:28:01;96648.53;;;10.77;nan
40502;BME280;29631;49.168;9.848;2023-04-26T04:30:28;96659.47;;;10.87;81.17
40502;BME280;29631;49.168;9.848;2023-04-26T04:32:54;96656.25;;;10.79;80.72
40502;BME280;29631;49.168;9.848;2023-04-26T04:35:21;96676.09;;;10.81;80.16
40502;BME280;29631;49.168;9.848;2023-04-26T04:37:47;96657.03;;;10.79;80.87
40502;BME280;29631;49.168;9.848;2023-04-26T04:40:14;96655.84;;;10.75;80.88
40502;BME280;29631;49.168;9.848;2023-04-26T04:42:40;96670.63;;;10.82;80.28
40502;BME280;29631;49.168;9.848;2023-04-26T04:45:09;96676.91;;;10.88;80.19
40502;BME280;29631;49.168;9.848;2023-04-26T04:47:35;96660.28;;;10.81;79.89
40502;BME280;29631;49.168;9.848;2023-04-26T04:50:04;96676.91;;;10.88;80.72
40502;BME280;29631;49.168;9.848;2023-04-26T04:52:30;96692.34;;;10.91;81.06
40502;BME280;29631;49.168;9.848;2023-04-26T04:54:58;96667.19;;;10.82;81.16
40502;BME280;29631;49.168;9.848;2023-04-26T04:57:24;96689.88;;;10.89;80.96
40502;BME280;29631;49.168;9.848;2023-04-26T04:59:50;96692.72;;;10.94;80.82
40502;BME280;29631;49.168;9.848;2023-04-26T05:02:16;96691.91;;;10.94;79.97
40502;BME280;29631;49.168;9.848;2023-04-26T05:04:41;96711.81;;;10.90;80.57
40502;BME280;29631;49.168;9.848;2023-04-26T05:07:07;96689.31;;;10.87;80.33
40502;BME280;29631;49.168;9.848;2023-04-26T05:09:34;96697.78;;;10.89;80.26
40502;BME280;29631;49.168;9.848;2023-04-26T05:12:00;96683.81;;;10.82;80.85
40502;BME280;29631;49.168;9.848;2023-04-26T05:14:26;96640.88;;;10.56;80.89
40502;BME280;29631;49.168;9.848;2023-04-26T05:16:51;96700.63;;;10.94;81.00
40502;BME280;29631;49.168;9.848;2023-04-26T05:19:17;96699.44;;;10.97;80.51
40502;BME280;29631;49.168;9.848;2023-04-26T05:21:43;96714.59;;;11.01;80.50
40502;BME280;29631;49.168;9.848;2023-04-26T05:24:08;96687.47;;;10.88;80.71
40502;BME280;29631;49.168;9.848;2023-04-26T05:26:34;96694.34;;;10.95;80.86
40502;BME280;29631;49.168;9.848;2023-04-26T05:29:01;96740.16;;;11.14;80.84
40502;BME280;29631;49.168;9.848;2023-04-26T05:31:26;96669.25;;;10.74;80.51
40502;BME280;29631;49.168;9.848;2023-04-26T05:33:52;96695.56;;;10.93;81.52
40502;BME280;29631;49.168;9.848;2023-04-26T05:36:18;96709.72;;;11.05;80.29
40502;BME280;29631;49.168;9.848;2023-04-26T05:38:44;96719.06;;;11.14;81.35
40502;BME280;29631;49.168;9.848;2023-04-26T05:41:09;96675.28;;;10.87;81.41
40502;BME280;29631;49.168;9.848;2023-04-26T05:43:36;96745.00;;;11.30;nan
40502;BME280;29631;49.168;9.848;2023-04-26T05:46:02;96741.72;;;11.34;81.26
40502;BME280;29631;49.168;9.848;2023-04-26T05:48:27;96760.81;;;11.36;80.43
40502;BME280;29631;49.168;9.848;2023-04-26T05:50:54;96694.34;;;10.89;80.78
40502;BME280;29631;49.168;9.848;2023-04-26T05:53:20;96754.31;;;11.39;81.64
40502;BME280;29631;49.168;9.848;2023-04-26T05:55:46;96747.00;;;11.34;81.03
40502;BME280;29631;49.168;9.848;2023-04-26T05:58:12;96769.31;;;11.45;81.29
40502;BME280;29631;49.168;9.848;2023-04-26T06:00:38;96730.38;;;11.34;82.46
40502;BME280;29631;49.168;9.848;2023-04-26T06:03:04;96740.50;;;11.37;82.10
40502;BME280;29631;49.168;9.848;2023-04-26T06:05:30;96753.06;;;11.54;81.24
40502;BME280;29631;49.168;9.848;2023-04-26T06:07:56;96752.63;;;11.63;82.03
40502;BME280;29631;49.168;9.848;2023-04-26T06:10:22;96737.03;;;11.56;81.93
40502;BME280;29631;49.168;9.848;2023-04-26T06:12:48;96699.50;;;11.41;81.51
40502;BME280;29631;49.168;9.848;2023-04-26T06:15:14;96730.53;;;11.58;81.10
40502;BME280;29631;49.168;9.848;2023-04-26T06:17:40;96757.03;;;11.82;81.48
40502;BME280;29631;49.168;9.848;2023-04-26T06:20:08;96745.66;;;11.82;81.70
40502;BME280;29631;49.168;9.848;2023-04-26T06:22:37;96745.44;;;11.90;82.60
40502;BME280;29631;49.168;9.848;2023-04-26T06:25:06;96737.50;;;11.90;82.08
40502;BME280;29631;49.168;9.848;2023-04-26T06:27:33;96764.66;;;12.03;81.48
40502;BME280;29631;49.168;9.848;2023-04-26T06:29:58;96701.06;;;11.67;82.15
40502;BME280;29631;49.168;9.848;2023-04-26T06:32:25;96731.72;;;12.06;82.22
40502;BME280;29631;49.168;9.848;2023-04-26T06:34:51;96750.59;;;12.09;81.70
40502;BME280;29631;49.168;9.848;2023-04-26T06:37:17;96748.97;;;12.08;81.92
40502;BME280;29631;49.168;9.848;2023-04-26T06:39:42;96714.97;;;11.87;81.53
40502;BME280;29631;49.168;9.848;2023-04-26T06:42:08;96757.94;;;12.07;81.39
40502;BME280;29631;49.168;9.848;2023-04-26T06:44:34;96756.13;;;12.01;81.27
40502;BME280;29631;49.168;9.848;2023-04-26T06:46:59;96749.66;;;11.97;81.13
40502;BME280;29631;49.168;9.848;2023-04-26T06:49:25;96757.75;;;12.02;81.28
40502;BME280;29631;49.168;9.848;2023-04-26T06:51:51;96769.94;;;12.03;81.20
40502;BME280;29631;49.168;9.848;2023-04-26T06:54:18;96750.06;;;11.94;81.50
40502;BME280;29631;49.168;9.848;2023-04-26T06:56:44;96761.41;;;12.01;80.88
40502;BME280;29631;49.168;9.848;2023-04-26T06:59:10;96771.97;;;12.08;80.54
40502;BME280;29631;49.168;9.848;2023-04-26T07:01:35;96756.91;;;12.08;81.08
40502;BME280;29631;49.168;9.848;2023-04-26T07:04:05;96741.88;;;12.09;80.68
40502;BME280;29631;49.168;9.848;2023-04-26T07:06:32;96769.41;;;12.26;81.12
40502;BME280;29631;49.168;9.848;2023-04-26T07:08:59;96769.41;;;12.32;80.71
40502;BME280;29631;49.168;9.848;2023-04-26T07:11:25;96733.91;;;12.15;79.90
40502;BME280;29631;49.168;9.848;2023-04-26T07:13:51;96737.16;;;12.17;80.15
40502;BME280;29631;49.168;9.848;2023-04-26T07:16:17;96769.13;;;12.40;80.38
40502;BME280;29631;49.168;9.848;2023-04-26T07:18:43;96732.03;;;12.22;80.56
40502;BME280;29631;49.168;9.848;2023-04-26T07:21:09;96753.16;;;12.29;80.67
40502;BME280;29631;49.168;9.848;2023-04-26T07:23:34;96743.38;;;12.29;79.85
40502;BME280;29631;49.168;9.848;2023-04-26T07:26:01;96765.63;;;12.46;79.89
40502;BME280;29631;49.168;9.848;2023-04-26T07:28:30;96762.81;;;12.41;80.28
40502;BME280;29631;49.168;9.848;2023-04-26T07:30:57;96737.22;;;12.35;80.14
40502;BME280;29631;49.168;9.848;2023-04-26T07:33:23;96767.25;;;12.47;80.27
40502;BME280;29631;49.168;9.848;2023-04-26T07:35:58;96734.19;;;12.38;80.11
40502;BME280;29631;49.168;9.848;2023-04-26T07:38:26;96706.81;;;12.26;80.02
40502;BME280;29631;49.168;9.848;2023-04-26T07:40:52;96695.78;;;12.29;79.56
40502;BME280;29631;49.168;9.848;2023-04-26T07:43:19;96740.69;;;12.66;79.08
40502;BME280;29631;49.168;9.848;2023-04-26T07:45:44;96748.69;;;12.78;78.76
40502;BME280;29631;49.168;9.848;2023-04-26T07:48:11;96671.75;;;12.37;78.63
40502;BME280;29631;49.168;9.848;2023-04-26T07:50:36;96753.16;;;12.84;78.98
40502;BME280;29631;49.168;9.848;2023-04-26T07:53:02;96753.13;;;12.90;78.56
40502;BME280;29631;49.168;9.848;2023-04-26T07:55:28;96764.03;;;13.00;79.04
40502;BME280;29631;49.168;9.848;2023-04-26T07:57:54;96738.50;;;12.88;78.26
40502;BME280;29631;49.168;9.848;2023-04-26T08:00:20;96747.47;;;13.04;78.31
40502;BME280;29631;49.168;9.848;2023-04-26T08:02:47;96763.25;;;13.17;78.64
40502;BME280;29631;49.168;9.848;2023-04-26T08:05:14;96743.09;;;13.16;78.52
40502;BME280;29631;49.168;9.848;2023-04-26T08:07:41;96707.41;;;13.01;78.53
40502;BME280;29631;49.168;9.848;2023-04-26T08:10:08;96750.56;;;13.44;78.18
40502;BME280;29631;49.168;9.848;2023-04-26T08:12:35;96754.09;;;13.56;79.11
40502;BME280;29631;49.168;9.848;2023-04-26T08:15:02;96758.44;;;13.68;78.67
40502;BME280;29631;49.168;9.848;2023-04-26T08:17:31;96744.16;;;13.69;78.29
40502;BME280;29631;49.168;9.848;2023-04-26T08:19:58;96748.13;;;13.78;78.12
40502;BME280;29631;49.168;9.848;2023-04-26T08:22:24;96748.88;;;13.85;78.05
40502;BME280;29631;49.168;9.848;2023-04-26T08:24:54;96752.13;;;13.87;77.46
40502;BME280;29631;49.168;9.848;2023-04-26T08:27:20;96755.25;;;13.95;77.29
40502;BME280;29631;49.168;9.848;2023-04-26T08:29:46;96753.63;;;13.94;76.84
40502;BME280;29631;49.168;9.848;2023-04-26T08:32:12;96756.34;;;14.06;77.25
40502;BME280;29631;49.168;9.848;2023-04-26T08:34:39;96736.03;;;14.00;76.91
40502;BME280;29631;49.168;9.848;2023-04-26T08:37:09;96754.47;;;14.13;77.15
40502;BME280;29631;49.168;9.848;2023-04-26T08:39:36;96769.13;;;14.27;77.22
40502;BME280;29631;49.168;9.848;2023-04-26T08:42:12;96769.13;;;14.27;76.31
40502;BME280;29631;49.168;9.848;2023-04-26T08:44:41;96769.97;;;14.27;76.46
40502;BME280;29631;49.168;9.848;2023-04-26T08:47:41;96762.06;;;14.39;76.38
40502;BME280;29631;49.168;9.848;2023-04-26T08:50:14;96758.34;;;14.40;76.21
40502;BME280;29631;49.168;9.848;2023-04-26T08:52:42;96751.44;;;14.39;76.24
40502;BME280;29631;49.168;9.848;2023-04-26T08:55:09;96731.56;;;14.30;76.24
40502;BME280;29631;49.168;9.848;2023-04-26T08:57:35;96744.53;;;14.38;76.30
40502;BME280;29631;49.168;9.848;2023-04-26T09:00:03;96752.13;;;14.46;75.65
40502;BME280;29631;49.168;9.848;2023-04-26T09:02:39;96753.31;;;14.50;75.77
40502;BME280;29631;49.168;9.848;2023-04-26T09:05:08;96752.41;;;14.55;75.71
40502;BME280;29631;49.168;9.848;2023-04-26T09:10:10;96762.84;;;14.91;75.41
40502;BME280;29631;49.168;9.848;2023-04-26T09:12:36;96755.03;;;14.96;75.16
40502;BME280;29631;49.168;9.848;2023-04-26T09:15:04;96767.19;;;15.15;74.97
40502;BME280;29631;49.168;9.848;2023-04-26T09:17:40;96762.72;;;15.27;74.75
40502;BME280;29631;49.168;9.848;2023-04-26T09:20:29;96756.34;;;15.39;74.29
40502;BME280;29631;49.168;9.848;2023-04-26T09:23:05;96744.09;;;15.50;74.54
40502;BME280;29631;49.168;9.848;2023-04-26T09:25:32;96758.75;;;15.64;74.29
40502;BME280;29631;49.168;9.848;2023-04-26T09:27:59;96752.75;;;15.57;73.82
40502;BME280;29631;49.168;9.848;2023-04-26T09:30:26;96760.13;;;15.66;73.91
40502;BME280;29631;49.168;9.848;2023-04-26T09:32:58;96746.03;;;15.54;73.93
40502;BME280;29631;49.168;9.848;2023-04-26T09:35:38;96757.13;;;15.63;73.15
40502;BME280;29631;49.168;9.848;2023-04-26T09:38:06;96749.41;;;15.61;73.94
40502;BME280;29631;49.168;9.848;2023-04-26T09:40:37;96753.19;;;15.77;73.47
40502;BME280;29631;49.168;9.848;2023-04-26T09:43:07;96757.09;;;15.86;73.51
40502;BME280;29631;49.168;9.848;2023-04-26T09:45:44;96743.69;;;15.81;73.21
40502;BME280;29631;49.168;9.848;2023-04-26T09:48:22;96729.72;;;15.74;73.42
40502;BME280;29631;49.168;9.848;2023-04-26T09:50:53;96737.44;;;15.87;73.21
40502;BME280;29631;49.168;9.848;2023-04-26T09:53:46;96751.19;;;15.95;72.80
40502;BME280;29631;49.168;9.848;2023-04-26T09:56:17;96756.50;;;15.95;72.91
40502;BME280;29631;49.168;9.848;2023-04-26T10:01:14;96705.31;;;15.77;72.73
40502;BME280;29631;49.168;9.848;2023-04-26T10:03:42;96733.44;;;16.00;72.33
40502;BME280;29631;49.168;9.848;2023-04-26T10:06:08;96713.19;;;15.83;71.81
40502;BME280;29631;49.168;9.848;2023-04-26T10:08:34;96727.25;;;15.95;71.27
40502;BME280;29631;49.168;9.848;2023-04-26T10:11:03;96718.00;;;15.86;71.74
40502;BME280;29631;49.168;9.848;2023-04-26T10:13:33;96727.78;;;15.97;70.98
40502;BME280;29631;49.168;9.848;2023-04-26T10:16:00;96728.81;;;16.07;71.19
40502;BME280;29631;49.168;9.848;2023-04-26T10:18:27;96729.97;;;16.11;70.73
40502;BME280;29631;49.168;9.848;2023-04-26T10:20:59;96730.38;;;16.20;70.28
40502;BME280;29631;49.168;9.848;2023-04-26T10:23:25;96730.84;;;16.28;71.19
40502;BME280;29631;49.168;9.848;2023-04-26T10:25:52;96720.41;;;16.27;70.67
40502;BME280;29631;49.168;9.848;2023-04-26T10:31:04;96729.75;;;16.41;70.97
40502;BME280;29631;49.168;9.848;2023-04-26T10:33:32;96720.22;;;16.45;70.86
40502;BME280;29631;49.168;9.848;2023-04-26T10:36:11;96738.31;;;16.59;69.96
40502;BME280;29631;49.168;9.848;2023-04-26T10:39:16;96742.94;;;16.64;70.74
40502;BME280;29631;49.168;9.848;2023-04-26T10:41:43;96720.97;;;16.57;70.68
40502;BME280;29631;49.168;9.848;2023-04-26T10:47:06;96718.31;;;16.57;69.52
40502;BME280;29631;49.168;9.848;2023-04-26T10:49:44;96731.38;;;16.58;69.50
40502;BME280;29631;49.168;9.848;2023-04-26T10:52:18;96743.19;;;16.62;69.59
40502;BME280;29631;49.168;9.848;2023-04-26T10:54:56;96719.59;;;16.54;69.36
40502;BME280;29631;49.168;9.848;2023-04-26T10:57:49;96729.28;;;16.60;68.50
40502;BME280;29631;49.168;9.848;2023-04-26T11:05:40;96722.22;;;16.66;69.16
40502;BME280;29631;49.168;9.848;2023-04-26T11:08:23;96701.69;;;16.66;68.67
40502;BME280;29631;49.168;9.848;2023-04-26T11:11:05;96712.22;;;16.73;68.34
40502;BME280;29631;49.168;9.848;2023-04-26T11:13:39;96718.31;;;16.73;68.48
40502;BME280;29631;49.168;9.848;2023-04-26T11:16:08;96690.66;;;16.58;68.17
40502;BME280;29631;49.168;9.848;2023-04-26T11:18:38;96679.03;;;16.47;68.66
40502;BME280;29631;49.168;9.848;2023-04-26T11:21:05;96712.22;;;16.73;68.25
40502;BME280;29631;49.168;9.848;2023-04-26T11:23:31;96699.75;;;16.78;68.70
40502;BME280;29631;49.168;9.848;2023-04-26T11:26:02;96672.50;;;16.71;68.29
40502;BME280;29631;49.168;9.848;2023-04-26T11:28:33;96680.72;;;16.86;67.91
40502;BME280;29631;49.168;9.848;2023-04-26T11:30:59;96682.00;;;17.00;68.15
40502;BME280;29631;49.168;9.848;2023-04-26T11:33:25;96693.38;;;17.12;67.77
40502;BME280;29631;49.168;9.848;2023-04-26T11:35:53;96671.03;;;17.13;68.19
40502;BME280;29631;49.168;9.848;2023-04-26T11:38:26;96675.44;;;17.24;67.62
40502;BME280;29631;49.168;9.848;2023-04-26T11:41:01;96674.38;;;17.25;67.62
40502;BME280;29631;49.168;9.848;2023-04-26T11:43:38;96670.66;;;17.42;68.39
40502;BME280;29631;49.168;9.848;2023-04-26T11:46:05;96648.13;;;17.33;67.85
40502;BME280;29631;49.168;9.848;2023-04-26T11:48:36;96662.00;;;17.51;68.15
40502;BME280;29631;49.168;9.848;2023-04-26T11:51:04;96660.44;;;17.55;68.00
40502;BME280;29631;49.168;9.848;2023-04-26T11:53:41;96670.59;;;17.58;67.24
40502;BME280;29631;49.168;9.848;2023-04-26T11:56:19;96670.59;;;17.58;66.70
40502;BME280;29631;49.168;9.848;2023-04-26T11:58:51;96661.56;;;17.59;67.13
40502;BME280;29631;49.168;9.848;2023-04-26T12:01:28;96663.19;;;17.60;66.86
40502;BME280;29631;49.168;9.848;2023-04-26T12:03:58;96657.66;;;17.67;67.12
40502;BME280;29631;49.168;9.848;2023-04-26T12:06:40;96631.66;;;17.57;65.94
40502;BME280;29631;49.168;9.848;2023-04-26T12:09:07;96654.25;;;17.71;67.17
40502;BME280;29631;49.168;9.848;2023-04-26T12:11:36;96655.84;;;17.72;67.12
40502;BME280;29631;49.168;9.848;2023-04-26T12:14:03;96634.91;;;17.59;67.19
40502;BME280;29631;49.168;9.848;2023-04-26T12:16:29;96633.38;;;17.68;66.88
40502;BME280;29631;49.168;9.848;2023-04-26T12:18:55;96666.31;;;17.79;66.75
40502;BME280;29631;49.168;9.848;2023-04-26T12:21:22;96645.19;;;17.72;66.94
40502;BME280;29631;49.168;9.848;2023-04-26T12:23:49;96665.00;;;17.81;66.95
40502;BME280;29631;49.168;9.848;2023-04-26T12:26:15;96641.47;;;17.73;66.30
40502;BME280;29631;49.168;9.848;2023-04-26T12:28:41;96647.28;;;17.70;66.40
40502;BME280;29631;49.168;9.848;2023-04-26T12:31:08;96657.94;;;17.70;66.02
40502;BME280;29631;49.168;9.848;2023-04-26T12:33:34;96658.44;;;17.67;65.80
40502;BME280;29631;49.168;9.848;2023-04-26T12:36:10;96651.00;;;17.69;65.80
40502;BME280;29631;49.168;9.848;2023-04-26T12:38:37;96658.56;;;17.77;66.47
40502;BME280;29631;49.168;9.848;2023-04-26T12:41:04;96636.63;;;17.70;65.82
40502;BME280;29631;49.168;9.848;2023-04-26T12:43:30;96624.84;;;17.66;65.79
40502;BME280;29631;49.168;9.848;2023-04-26T12:45:56;96617.47;;;17.52;66.01
40502;BME280;29631;49.168;9.848;2023-04-26T12:48:22;96643.53;;;17.66;65.39
40502;BME280;29631;49.168;9.848;2023-04-26T12:50:47;96620.78;;;17.64;65.56
40502;BME280;29631;49.168;9.848;2023-04-26T12:53:13;96640.47;;;17.79;66.11
40502;BME280;29631;49.168;9.848;2023-04-26T12:55:39;96626.56;;;17.77;65.83
40502;BME280;29631;49.168;9.848;2023-04-26T12:58:05;96642.78;;;17.97;65.72
40502;BME280;29631;49.168;9.848;2023-04-26T13:00:31;96627.50;;;17.88;65.74
40502;BME280;29631;49.168;9.848;2023-04-26T13:02:57;96632.13;;;17.97;65.93
40502;BME280;29631;49.168;9.848;2023-04-26T13:05:23;96640.78;;;18.09;65.84
40502;BME280;29631;49.168;9.848;2023-04-26T13:07:51;96616.59;;;17.94;65.72
40502;BME280;29631;49.168;9.848;2023-04-26T13:10:17;96608.13;;;17.97;65.95
40502;BME280;29631;49.168;9.848;2023-04-26T13:12:43;96590.94;;;17.88;65.71
40502;BME280;29631;49.168;9.848;2023-04-26T13:15:09;96624.13;;;18.23;66.29
40502;BME280;29631;49.168;9.848;2023-04-26T13:17:36;96630.34;;;18.29;65.65
40502;BME280;29631;49.168;9.848;2023-04-26T13:20:04;96629.03;;;18.31;65.31